Time;durP1;ratioP1;P1;durP2;ratioP2;P2;SDS_P1;SDS_P2;PMS_P1;PMS_P2;Temp;Humidity;BMP_temperature;BMP_pressure;BME280_temperature;BME280_humidity;BME280_pressure;Samples;Min_cycle;Max_cycle;Signal;HPM_P1;HPM_P2
2023/02/05 00:02:28;;;;;;;8.63;4.47;;;;;;;6.75;59.16;102474.69;10227543;28;20566;-61
2023/02/05 00:07:29;;;;;;;9.10;4.13;;;;;;;6.66;59.96;102477.09;10231133;28;20055;-61
2023/02/05 00:12:31;;;;;;;7.72;3.97;;;;;;;6.63;59.10;102477.28;10224963;28;20225;-61
2023/02/05 00:17:34;;;;;;;6.80;3.92;;;;;;;6.56;59.49;102460.78;10223253;28;20135;-61
2023/02/05 00:22:36;;;;;;;12.38;5.47;;;;;;;6.40;59.82;102468.03;10225816;28;20052;-61
2023/02/05 00:27:37;;;;;;;6.82;4.32;;;;;;;6.37;60.23;102469.09;10222118;28;20083;-62
2023/02/05 00:32:39;;;;;;;11.38;4.90;;;;;;;6.41;60.61;102467.09;10206648;28;20059;-62
2023/02/05 00:37:40;;;;;;;7.22;3.47;;;;;;;6.26;60.58;102469.78;10220104;28;20220;-62
2023/02/05 00:42:41;;;;;;;12.35;3.17;;;;;;;6.23;60.12;102467.28;10223214;28;20083;-61
2023/02/05 00:47:43;;;;;;;4.72;2.53;;;;;;;6.27;60.28;102452.78;10223660;28;20054;-61
2023/02/05 00:52:44;;;;;;;7.40;3.95;;;;;;;6.37;60.22;102458.41;10231263;28;20074;-62
2023/02/05 00:57:45;;;;;;;6.75;2.90;;;;;;;6.33;60.57;102447.06;10225960;28;20930;-62
2023/02/05 01:02:47;;;;;;;5.75;2.72;;;;;;;6.33;60.58;102435.53;10223804;28;20558;-61
2023/02/05 01:07:48;;;;;;;8.38;3.35;;;;;;;6.22;60.82;102438.00;10226437;28;20044;-62
2023/02/05 01:12:50;;;;;;;6.82;3.53;;;;;;;6.20;61.17;102423.88;10205673;28;20088;-61
2023/02/05 01:17:51;;;;;;;7.38;3.15;;;;;;;6.23;61.56;102410.34;10223871;28;20147;-62
2023/02/05 01:22:54;;;;;;;8.88;4.03;;;;;;;6.26;61.52;102411.03;10224967;28;20138;-61
2023/02/05 01:27:55;;;;;;;5.65;3.45;;;;;;;6.21;61.39;102404.25;10222200;28;20503;-62
2023/02/05 01:32:56;;;;;;;11.10;4.07;;;;;;;6.20;62.01;102418.53;10219755;28;20063;-62
2023/02/05 01:37:58;;;;;;;5.72;3.60;;;;;;;6.27;61.51;102418.06;10215849;28;20452;-62
2023/02/05 01:42:59;;;;;;;8.20;3.65;;;;;;;6.33;61.49;102400.78;10218808;28;20094;-60
2023/02/05 01:48:02;;;;;;;7.15;3.15;;;;;;;6.42;61.11;102381.53;10218601;28;20454;-60
2023/02/05 01:53:07;;;;;;;6.88;3.90;;;;;;;6.46;62.00;102380.38;10222633;28;20130;-61
2023/02/05 01:58:10;;;;;;;6.63;3.15;;;;;;;6.51;62.01;102372.03;10226964;28;20137;-60
2023/02/05 02:03:13;;;;;;;7.18;3.03;;;;;;;6.49;62.04;102368.63;10234436;28;20040;-62
2023/02/05 02:08:14;;;;;;;11.40;3.47;;;;;;;6.53;61.44;102367.44;10267907;28;20047;-61
2023/02/05 02:13:19;;;;;;;5.13;2.80;;;;;;;6.46;61.58;102352.81;10269907;28;20044;-62
2023/02/05 02:18:27;;;;;;;7.13;3.22;;;;;;;6.44;61.99;102358.22;10273516;28;20042;-61
2023/02/05 02:23:44;;;;;;;6.53;4.03;;;;;;;6.49;61.99;102341.91;10274399;28;20044;-61
2023/02/05 02:28:50;;;;;;;7.57;3.40;;;;;;;6.53;62.00;102338.91;10270878;28;20142;-62
2023/02/05 02:34:10;;;;;;;5.47;3.35;;;;;;;6.51;62.13;102334.63;10270136;28;20050;-62
2023/02/05 02:39:21;;;;;;;6.32;3.20;;;;;;;6.57;62.28;102312.00;10271952;28;20047;-61
2023/02/05 02:44:31;;;;;;;6.75;3.90;;;;;;;6.57;62.43;102334.22;10269379;28;20064;-62
2023/02/05 02:49:38;;;;;;;8.07;3.60;;;;;;;6.56;62.03;102332.53;10271551;28;20055;-61
2023/02/05 02:54:42;;;;;;;7.88;3.30;;;;;;;6.58;62.09;102301.22;10268858;28;20051;-61
2023/02/05 02:59:47;;;;;;;8.27;4.57;;;;;;;6.61;61.90;102306.34;10256686;28;20043;-61
2023/02/05 03:04:56;;;;;;;10.60;4.60;;;;;;;6.63;62.46;102298.25;10283377;28;20104;-62
2023/02/05 03:10:06;;;;;;;10.00;4.00;;;;;;;6.66;62.30;102314.94;10282791;28;20067;-61
2023/02/05 03:15:08;;;;;;;6.93;3.83;;;;;;;6.65;61.86;102317.69;10282558;28;20049;-61
2023/02/05 03:20:15;;;;;;;6.32;3.13;;;;;;;6.65;62.28;102291.81;10284535;28;20031;-62
2023/02/05 03:25:20;;;;;;;5.00;3.20;;;;;;;6.65;61.86;102299.84;10284565;28;20100;-62
2023/02/05 03:30:28;;;;;;;8.02;3.80;;;;;;;6.66;62.26;102288.22;10275545;28;20043;-62
2023/02/05 03:35:43;;;;;;;6.03;3.10;;;;;;;6.70;62.20;102283.53;10277309;28;20039;-62
2023/02/05 03:40:54;;;;;;;8.50;3.35;;;;;;;6.63;62.71;102290.22;10279688;28;20047;-62
2023/02/05 03:46:47;;;;;;;6.78;3.50;;;;;;;6.64;62.69;102273.25;10253045;28;20036;-61
2023/02/05 03:51:57;;;;;;;6.18;3.33;;;;;;;6.64;62.94;102295.47;10241430;28;20062;-60
2023/02/05 03:57:17;;;;;;;4.95;3.45;;;;;;;6.65;62.41;102299.00;10281353;28;20038;-61
2023/02/05 04:02:20;;;;;;;7.32;3.28;;;;;;;6.64;62.93;102300.81;10287017;28;20051;-61
2023/02/05 04:07:22;;;;;;;9.73;3.50;;;;;;;6.44;63.56;102296.78;10272431;28;20047;-61
2023/02/05 04:12:23;;;;;;;7.40;3.22;;;;;;;6.29;63.79;102298.63;10284411;28;20047;-61
2023/02/05 04:17:25;;;;;;;5.28;3.28;;;;;;;6.38;63.99;102294.53;10275657;28;20046;-61
2023/02/05 04:22:26;;;;;;;6.60;3.58;;;;;;;6.24;64.54;102289.22;10279796;28;20039;-61
2023/02/05 04:27:27;;;;;;;6.78;3.22;;;;;;;6.37;63.84;102276.78;10279845;28;20090;-61
2023/02/05 04:32:29;;;;;;;6.72;3.63;;;;;;;6.52;63.66;102286.44;10270611;28;20280;-62
2023/02/05 04:37:30;;;;;;;8.30;3.95;;;;;;;6.55;64.40;102272.88;10271410;28;20032;-61
2023/02/05 04:42:31;;;;;;;10.57;4.63;;;;;;;6.61;63.50;102260.06;10279144;28;20043;-61
2023/02/05 04:47:33;;;;;;;9.10;3.50;;;;;;;6.63;63.92;102242.97;10278480;28;20071;-62
2023/02/05 04:52:35;;;;;;;5.78;3.90;;;;;;;6.63;63.95;102242.13;10272463;28;20051;-61
2023/02/05 04:57:36;;;;;;;10.00;3.58;;;;;;;6.67;63.91;102243.63;10272892;28;20048;-61
2023/02/05 05:02:37;;;;;;;4.22;2.92;;;;;;;6.71;64.62;102237.13;10274360;28;20047;-61
2023/02/05 05:07:39;;;;;;;5.28;3.13;;;;;;;6.70;64.50;102264.81;10278824;28;20047;-61
2023/02/05 05:12:40;;;;;;;7.88;4.25;;;;;;;6.55;64.85;102256.84;10270515;28;20055;-62
2023/02/05 05:17:42;;;;;;;7.10;3.72;;;;;;;6.53;64.46;102277.47;10273068;28;20039;-61
2023/02/05 05:22:43;;;;;;;5.50;3.17;;;;;;;6.57;64.09;102274.59;10273480;28;20039;-62
2023/02/05 05:27:44;;;;;;;5.75;3.30;;;;;;;6.59;64.47;102280.69;10267408;28;20074;-61
2023/02/05 05:32:46;;;;;;;9.00;3.38;;;;;;;6.69;64.74;102276.44;10275831;28;20387;-63
2023/02/05 05:37:47;;;;;;;6.10;3.55;;;;;;;6.72;64.61;102270.91;10269031;28;20040;-65
2023/02/05 05:48:08;;;;;;;7.65;3.90;;;;;;;6.76;64.14;102261.72;10274053;28;20058;-61
2023/02/05 05:53:10;;;;;;;6.30;3.20;;;;;;;6.74;64.53;102260.97;10269605;28;20035;-60
2023/02/05 05:58:11;;;;;;;5.90;3.20;;;;;;;6.76;65.69;102280.44;10269575;28;20039;-61
2023/02/05 06:03:13;;;;;;;7.35;3.85;;;;;;;6.74;65.77;102293.03;10261869;28;20043;-61
2023/02/05 06:08:15;;;;;;;9.07;3.67;;;;;;;6.71;65.58;102286.09;10259403;28;20059;-60
2023/02/05 06:13:16;;;;;;;7.57;4.22;;;;;;;6.63;66.25;102277.72;10269024;28;20048;-60
2023/02/05 06:18:18;;;;;;;6.40;4.28;;;;;;;6.54;66.71;102259.66;10263567;28;20066;-59
2023/02/05 06:23:19;;;;;;;10.18;4.38;;;;;;;6.38;67.20;102248.25;10270615;28;20059;-59
2023/02/05 06:28:20;;;;;;;8.35;4.57;;;;;;;6.29;67.74;102245.22;10254958;28;20055;-60
2023/02/05 06:33:22;;;;;;;5.57;4.30;;;;;;;6.30;67.84;102240.72;10247109;28;20056;-60
2023/02/05 06:38:23;;;;;;;6.90;4.65;;;;;;;6.22;68.24;102243.06;10225165;28;20123;-61
2023/02/05 06:43:24;;;;;;;12.98;5.85;;;;;;;6.22;68.91;102245.72;10222990;28;20138;-62
2023/02/05 06:48:26;;;;;;;8.45;4.75;;;;;;;6.16;69.16;102257.66;10222800;28;20106;-61
2023/02/05 06:53:27;;;;;;;11.05;5.63;;;;;;;6.17;69.48;102262.06;10240987;28;20066;-59
2023/02/05 06:58:28;;;;;;;10.38;5.38;;;;;;;6.23;68.68;102284.84;10275084;28;20031;-60
2023/02/05 07:03:30;;;;;;;11.60;5.70;;;;;;;6.15;69.66;102291.53;10277232;28;20039;-60
2023/02/05 07:08:31;;;;;;;9.38;4.93;;;;;;;6.11;70.18;102281.16;10273963;28;20067;-59
2023/02/05 07:13:33;;;;;;;13.00;5.90;;;;;;;5.95;70.61;102246.59;10273594;28;20035;-59
2023/02/05 07:18:34;;;;;;;11.68;5.07;;;;;;;5.92;70.67;102247.63;10270364;28;20309;-59
2023/02/05 07:23:36;;;;;;;11.50;5.43;;;;;;;5.89;70.72;102252.28;10267341;28;20159;-59
2023/02/05 07:28:38;;;;;;;9.65;5.60;;;;;;;5.76;71.23;102222.84;10272067;28;20102;-60
2023/02/05 07:33:39;;;;;;;14.68;6.60;;;;;;;5.83;71.61;102191.31;10273856;28;20054;-59
2023/02/05 07:38:42;;;;;;;10.98;6.20;;;;;;;5.72;71.59;102195.50;10270584;28;20047;-60
2023/02/05 07:43:43;;;;;;;10.52;5.63;;;;;;;5.61;72.48;102203.34;10268179;28;20091;-61
2023/02/05 07:48:45;;;;;;;12.02;6.13;;;;;;;5.43;72.42;102241.84;10279954;28;20046;-60
2023/02/05 07:53:46;;;;;;;9.77;6.18;;;;;;;5.44;72.52;102236.41;10281630;28;20270;-61
2023/02/05 07:58:48;;;;;;;10.38;5.40;;;;;;;5.35;72.93;102239.63;10283005;28;20052;-60
2023/02/05 08:03:49;;;;;;;15.90;7.70;;;;;;;5.56;72.40;102221.44;10280225;28;20091;-60
2023/02/05 08:08:51;;;;;;;17.55;7.25;;;;;;;5.69;72.91;102206.38;10281867;28;20059;-60
2023/02/05 08:13:52;;;;;;;14.35;6.55;;;;;;;5.78;72.84;102207.59;10281787;28;20046;-60
2023/02/05 08:18:53;;;;;;;13.73;6.18;;;;;;;5.89;72.59;102188.22;10279706;28;20043;-60
2023/02/05 08:23:57;;;;;;;15.65;6.90;;;;;;;5.98;72.34;102190.31;10277523;28;20054;-60
2023/02/05 08:28:58;;;;;;;16.48;8.35;;;;;;;6.01;73.39;102189.28;10278461;28;20043;-59
2023/02/05 08:34:00;;;;;;;16.77;7.63;;;;;;;6.09;72.56;102192.28;10273853;28;20063;-59
2023/02/05 08:39:02;;;;;;;15.20;6.63;;;;;;;6.05;73.18;102196.13;10278925;28;20043;-59
2023/02/05 08:44:04;;;;;;;10.57;6.70;;;;;;;6.03;73.54;102201.56;10278758;28;20095;-59
2023/02/05 08:49:05;;;;;;;14.35;6.75;;;;;;;5.99;73.54;102193.88;10274598;28;20051;-59
2023/02/05 08:54:11;;;;;;;15.82;8.88;;;;;;;6.03;73.97;102182.03;10274850;28;20053;-60
2023/02/05 08:59:13;;;;;;;26.70;11.07;;;;;;;6.07;73.87;102176.38;10248858;28;20048;-59
2023/02/05 09:04:20;;;;;;;26.88;11.32;;;;;;;6.06;73.75;102165.78;10255340;28;20071;-59
2023/02/05 09:09:22;;;;;;;;;;;;;;;6.05;74.21;102164.94;10271457;28;20040;-60
2023/02/05 09:14:23;;;;;;;27.10;12.98;;;;;;;6.08;74.07;102154.06;10265472;28;19922;-60
2023/02/05 09:19:24;;;;;;;26.92;13.18;;;;;;;5.99;74.32;102154.66;10265908;28;20048;-60
2023/02/05 09:24:26;;;;;;;30.00;12.65;;;;;;;5.91;74.66;102156.97;10271079;28;20031;-60
2023/02/05 09:29:28;;;;;;;33.08;13.55;;;;;;;5.97;74.06;102161.94;10275236;28;20043;-60
2023/02/05 09:34:31;;;;;;;28.02;12.60;;;;;;;6.02;73.92;102156.28;10273739;28;20044;-61
2023/02/05 09:39:32;;;;;;;35.92;15.02;;;;;;;6.09;74.53;102153.09;10280189;28;20039;-60
2023/02/05 09:45:06;;;;;;;34.70;14.30;;;;;;;6.05;74.44;102148.91;10278309;28;20062;-60
2023/02/05 09:50:30;;;;;;;37.90;16.02;;;;;;;5.95;74.51;102145.16;10278119;28;20074;-60
2023/02/05 09:55:36;;;;;;;33.80;14.07;;;;;;;5.95;75.28;102134.47;10279808;28;20035;-62
2023/02/05 12:58:09;;;;;;;27.35;14.40;;;;;;;7.66;77.36;102034.22;12332087;23;20069;-61
2023/02/05 13:40:23;;;;;;;17.73;9.90;;;;;;;8.10;76.55;102000.53;11052494;23;20055;-61
2023/02/05 13:45:43;;;;;;;19.42;11.13;;;;;;;8.08;76.89;102000.66;10255238;29;20028;-62
2023/02/05 14:17:27;;;;;;;15.90;9.27;;;;;;;8.24;76.37;102050.38;11965641;23;20058;-61
2023/02/05 14:22:41;;;;;;;15.07;10.20;;;;;;;8.26;75.62;102056.47;10298635;28;20052;-61
2023/02/05 14:27:48;;;;;;;17.02;10.00;;;;;;;8.22;75.42;102061.19;10290280;28;20039;-62
2023/02/05 14:32:49;;;;;;;13.93;9.30;;;;;;;8.22;75.98;102069.22;10292722;28;20077;-62
2023/02/05 14:37:53;;;;;;;14.93;9.52;;;;;;;8.15;75.57;102068.00;10301259;28;20050;-62
2023/02/05 14:43:14;;;;;;;14.68;9.43;;;;;;;8.13;76.10;102077.97;10299505;28;20054;-61
2023/02/05 14:48:23;;;;;;;16.10;9.43;;;;;;;8.06;75.84;102074.91;10291307;28;20162;-62
2023/02/05 14:53:25;;;;;;;16.55;9.88;;;;;;;8.06;76.25;102088.31;10291582;28;20055;-61
2023/02/05 14:58:43;;;;;;;14.77;9.20;;;;;;;8.08;75.79;102091.72;10285858;28;20051;-62
2023/02/05 15:03:45;;;;;;;11.65;7.45;;;;;;;7.97;76.06;102096.19;10295466;28;20042;-61
2023/02/05 15:09:10;;;;;;;13.43;8.15;;;;;;;7.88;75.84;102111.13;10276658;28;20035;-61
2023/02/05 15:14:43;;;;;;;14.80;8.77;;;;;;;7.82;75.69;102123.16;10288894;28;20053;-61
2023/02/05 15:19:47;;;;;;;13.48;8.38;;;;;;;7.76;75.72;102123.59;10298890;28;20114;-60
2023/02/05 15:24:52;;;;;;;13.73;8.05;;;;;;;7.79;75.93;102122.50;10300943;28;20055;-60
2023/02/05 15:29:54;;;;;;;15.55;8.38;;;;;;;7.71;75.85;102131.09;10302233;28;20046;-60
2023/02/05 15:35:03;;;;;;;14.30;8.35;;;;;;;7.73;75.56;102132.69;10274086;28;20079;-60
2023/02/05 15:40:18;;;;;;;11.23;7.95;;;;;;;7.69;75.96;102143.75;10288034;28;20051;-59
2023/02/05 15:45:26;;;;;;;12.43;7.43;;;;;;;7.68;76.05;102140.22;10286775;28;20051;-59
2023/02/05 15:50:29;;;;;;;11.75;7.90;;;;;;;7.65;75.94;102145.78;10284576;28;20062;-59
2023/02/05 15:55:32;;;;;;;13.32;8.07;;;;;;;7.62;76.22;102143.34;10283144;28;20059;-59
2023/02/05 16:00:38;;;;;;;12.38;7.63;;;;;;;7.62;75.82;102146.03;10274412;28;20119;-59
2023/02/05 16:05:50;;;;;;;14.65;8.07;;;;;;;7.60;75.91;102163.16;10266788;28;20049;-59
2023/02/05 16:10:57;;;;;;;18.20;9.27;;;;;;;7.55;76.44;102169.69;10252438;28;20533;-60
2023/02/05 16:16:04;;;;;;;14.57;8.33;;;;;;;7.49;75.94;102177.31;10277832;28;20050;-59
2023/02/05 16:21:19;;;;;;;13.77;7.78;;;;;;;7.46;76.45;102188.22;10251501;28;20085;-59
2023/02/05 16:26:35;;;;;;;14.35;7.30;;;;;;;7.47;75.71;102203.34;10246724;28;20058;-62
2023/02/05 16:31:36;;;;;;;12.10;6.85;;;;;;;7.43;76.46;102210.72;10253279;28;20047;-60
2023/02/05 16:36:42;;;;;;;10.70;6.30;;;;;;;7.48;75.85;102223.75;10270315;28;20047;-60
2023/02/05 16:41:43;;;;;;;10.40;6.63;;;;;;;7.26;76.20;102235.13;10249504;28;20035;-59
2023/02/05 16:47:05;;;;;;;9.63;6.57;;;;;;;7.18;77.20;102249.03;10234816;28;20142;-59
2023/02/05 16:52:27;;;;;;;12.68;7.00;;;;;;;7.12;76.91;102252.13;10243857;28;20071;-62
2023/02/05 16:57:35;;;;;;;15.15;7.90;;;;;;;7.10;76.52;102241.53;10242520;28;20094;-60
2023/02/05 17:02:40;;;;;;;13.07;7.85;;;;;;;7.11;77.00;102253.13;10245847;28;20142;-59
2023/02/05 17:07:41;;;;;;;12.75;8.30;;;;;;;7.17;76.36;102260.72;10243382;28;20138;-62
2023/02/05 17:12:53;;;;;;;17.58;9.23;;;;;;;7.15;75.85;102273.34;10252873;28;20535;-60
2023/02/05 17:18:27;;;;;;;16.58;9.43;;;;;;;7.14;76.05;102282.31;10240761;28;20118;-61
2023/02/05 17:23:29;;;;;;;13.95;7.82;;;;;;;7.15;76.15;102284.03;10242994;28;20114;-59
2023/02/05 17:28:33;;;;;;;14.98;7.95;;;;;;;7.14;76.17;102287.66;10237652;28;20079;-60
2023/02/05 17:33:34;;;;;;;15.18;8.18;;;;;;;7.11;77.10;102293.22;10237956;28;20162;-61
2023/02/05 17:38:35;;;;;;;14.27;8.68;;;;;;;7.10;76.16;102297.69;10238382;28;20142;-60
2023/02/05 17:43:40;;;;;;;14.18;8.45;;;;;;;7.09;76.67;102305.81;10207038;28;20110;-60
2023/02/05 17:48:43;;;;;;;15.27;9.30;;;;;;;7.19;76.18;102303.38;10238182;28;20055;-60
2023/02/05 17:53:44;;;;;;;14.65;9.25;;;;;;;7.20;76.29;102310.44;10215258;28;20051;-62
2023/02/05 17:58:47;;;;;;;15.63;8.02;;;;;;;7.27;75.79;102327.81;10221456;28;20094;-62
2023/02/05 18:03:48;;;;;;;17.05;9.15;;;;;;;7.25;76.36;102335.06;10216537;28;20465;-63
2023/02/05 18:08:50;;;;;;;14.00;9.65;;;;;;;7.28;76.83;102335.69;10245861;28;20113;-61
2023/02/05 18:13:51;;;;;;;16.38;9.63;;;;;;;7.34;76.03;102335.25;10232123;28;20075;-62
2023/02/05 18:18:53;;;;;;;17.00;10.07;;;;;;;7.37;75.70;102341.41;10248514;28;20467;-61
2023/02/05 18:23:54;;;;;;;17.13;10.13;;;;;;;7.38;76.18;102343.09;10246840;28;20501;-63
2023/02/05 18:28:55;;;;;;;15.88;9.40;;;;;;;7.38;76.68;102348.44;10243730;28;20055;-58
2023/02/05 18:33:57;;;;;;;19.67;12.18;;;;;;;7.38;76.10;102337.75;10235495;28;20070;-63
2023/02/05 18:38:58;;;;;;;32.95;15.75;;;;;;;7.38;75.70;102354.66;10246119;28;20130;-62
2023/02/05 18:43:59;;;;;;;48.95;20.48;;;;;;;7.39;76.56;102360.88;10214491;28;20047;-61
2023/02/05 18:49:01;;;;;;;22.20;11.52;;;;;;;7.42;76.19;102366.00;10232874;28;20483;-63
2023/02/05 18:54:05;;;;;;;21.17;11.35;;;;;;;7.47;76.24;102374.59;10228308;28;20083;-61
2023/02/05 18:59:08;;;;;;;14.40;8.88;;;;;;;7.48;76.68;102358.41;10240986;28;20070;-62
2023/02/05 19:04:12;;;;;;;17.52;11.07;;;;;;;7.47;76.57;102366.56;10244600;28;20050;-62
2023/02/05 19:09:13;;;;;;;22.15;11.68;;;;;;;7.46;76.84;102360.31;10222175;28;20042;-62
2023/02/05 19:14:17;;;;;;;20.08;10.23;;;;;;;7.54;76.63;102375.84;10253838;28;20081;-62
2023/02/05 19:19:21;;;;;;;17.80;11.50;;;;;;;7.57;76.55;102381.00;10219017;28;20739;-59
2023/02/05 19:24:23;;;;;;;17.80;10.30;;;;;;;7.54;76.67;102392.78;10239849;28;20067;-59
2023/02/05 19:29:25;;;;;;;19.80;9.82;;;;;;;7.50;76.40;102404.66;10234397;28;20153;-61
2023/02/05 19:34:27;;;;;;;14.15;9.00;;;;;;;7.48;77.26;102403.03;10237542;28;20134;-61
2023/02/05 19:39:29;;;;;;;14.70;8.57;;;;;;;7.34;76.73;102418.19;10238877;28;20134;-60
2023/02/05 19:44:31;;;;;;;16.02;8.70;;;;;;;7.27;77.43;102414.25;10240297;28;20058;-60
2023/02/05 19:49:32;;;;;;;14.95;8.27;;;;;;;7.23;77.14;102409.22;10245271;28;20051;-60
2023/02/05 19:54:34;;;;;;;11.23;7.05;;;;;;;7.20;77.11;102409.41;10235799;28;20494;-61
2023/02/05 19:59:36;;;;;;;11.18;6.20;;;;;;;7.20;77.34;102409.41;10241722;28;20147;-60
2023/02/05 20:04:39;;;;;;;12.60;7.43;;;;;;;7.14;76.70;102413.34;10223373;28;20059;-61
2023/02/05 20:09:40;;;;;;;14.43;7.88;;;;;;;7.13;76.96;102422.34;10239570;28;20043;-60
2023/02/05 20:14:42;;;;;;;13.35;7.10;;;;;;;7.09;77.11;102428.81;10244196;28;20043;-60
2023/02/05 20:19:43;;;;;;;12.38;7.50;;;;;;;7.08;77.11;102437.81;10246545;28;20101;-61
2023/02/05 20:24:45;;;;;;;12.80;7.28;;;;;;;7.01;77.87;102439.19;10241076;28;20051;-61
2023/02/05 20:35:06;;;;;;;14.45;7.38;;;;;;;7.00;77.29;102454.38;10247274;28;20130;-63
2023/02/05 20:40:08;;;;;;;12.40;7.75;;;;;;;7.01;77.54;102453.44;10226277;28;20143;-62
2023/02/05 20:45:09;;;;;;;15.27;8.63;;;;;;;7.04;77.17;102460.38;10220611;28;20133;-59
2023/02/05 20:50:11;;;;;;;16.05;8.73;;;;;;;7.05;76.73;102464.75;10252725;28;20131;-61
2023/02/05 20:55:12;;;;;;;16.63;8.88;;;;;;;7.11;76.80;102462.56;10235412;28;20149;-61
2023/02/05 21:00:14;;;;;;;15.10;8.25;;;;;;;7.13;77.09;102460.63;10239360;28;20069;-62
2023/02/05 21:05:15;;;;;;;14.75;8.25;;;;;;;7.12;75.83;102461.59;10241772;28;20142;-60
2023/02/05 21:10:18;;;;;;;15.02;8.98;;;;;;;7.12;76.02;102464.25;10244832;28;20126;-61
2023/02/05 21:15:19;;;;;;;17.77;8.75;;;;;;;7.11;76.25;102483.09;10246939;28;20546;-60
2023/02/05 21:20:20;;;;;;;16.80;8.40;;;;;;;7.09;76.64;102493.00;10247316;28;20111;-61
2023/02/05 21:25:22;;;;;;;22.20;10.35;;;;;;;7.05;76.11;102505.75;10237966;28;20137;-60
2023/02/05 21:30:23;;;;;;;19.02;9.63;;;;;;;7.08;75.83;102502.84;10241673;28;20074;-65
2023/02/05 21:35:26;;;;;;;18.13;9.85;;;;;;;7.04;76.89;102501.34;10238365;28;20090;-60
2023/02/05 21:40:27;;;;;;;18.30;9.73;;;;;;;7.10;76.20;102511.63;10240704;28;20047;-61
2023/02/05 21:45:28;;;;;;;19.27;9.57;;;;;;;7.18;76.14;102516.50;10247534;28;20078;-62
2023/02/05 21:50:30;;;;;;;17.02;8.98;;;;;;;7.16;76.11;102513.06;10240939;28;20121;-61
2023/02/05 21:55:32;;;;;;;21.60;10.85;;;;;;;7.18;76.71;102524.50;10236839;28;20146;-61
2023/02/05 22:00:34;;;;;;;18.90;9.82;;;;;;;7.20;76.19;102521.75;10247565;28;20048;-61
2023/02/05 22:05:35;;;;;;;18.48;9.85;;;;;;;7.23;76.26;102530.44;10245505;28;20138;-61
2023/02/05 22:10:37;;;;;;;18.52;9.27;;;;;;;7.24;75.56;102540.16;10238825;28;20078;-61
2023/02/05 22:15:38;;;;;;;18.98;10.25;;;;;;;7.20;76.13;102548.50;10244545;28;20074;-62
2023/02/05 22:20:39;;;;;;;18.40;9.82;;;;;;;7.23;76.35;102549.16;10215756;28;20047;-61
2023/02/05 22:25:45;;;;;;;17.73;9.80;;;;;;;7.11;76.58;102555.31;10239610;28;20562;-61
2023/02/05 22:30:47;;;;;;;21.73;10.50;;;;;;;7.11;76.63;102564.19;10244452;28;20147;-62
2023/02/05 22:35:51;;;;;;;20.55;10.93;;;;;;;7.15;76.51;102575.56;10242041;28;20151;-61
2023/02/05 22:40:52;;;;;;;18.70;9.82;;;;;;;7.19;76.64;102582.41;10250139;28;20070;-62
2023/02/05 22:45:54;;;;;;;19.35;10.30;;;;;;;7.23;76.16;102575.06;10242637;28;20083;-60
2023/02/05 22:50:55;;;;;;;20.92;9.98;;;;;;;7.17;75.88;102575.44;10237996;28;20384;-63
2023/02/05 22:56:06;;;;;;;21.00;9.85;;;;;;;7.10;76.49;102585.66;10241975;28;20071;-63
2023/02/05 23:01:09;;;;;;;23.58;11.07;;;;;;;7.18;75.42;102602.09;10246669;28;20419;-61
2023/02/05 23:06:13;;;;;;;24.48;12.23;;;;;;;7.10;75.61;102589.19;10254956;28;20047;-64
2023/02/05 23:11:15;;;;;;;21.95;11.65;;;;;;;7.06;76.47;102589.50;10236958;28;20540;-62
2023/02/05 23:16:22;;;;;;;24.55;11.27;;;;;;;6.97;76.31;102590.97;10241575;28;20149;-61
2023/02/05 23:21:26;;;;;;;26.77;11.52;;;;;;;6.93;75.80;102582.25;10249455;28;20058;-61
2023/02/05 23:26:32;;;;;;;27.35;12.48;;;;;;;6.91;75.84;102586.84;10250395;28;20090;-61
2023/02/05 23:31:34;;;;;;;21.00;10.95;;;;;;;6.83;75.87;102585.59;10248735;28;20662;-61
2023/02/05 23:36:35;;;;;;;23.58;11.88;;;;;;;6.79;75.93;102592.94;10253851;28;20057;-62
2023/02/05 23:41:38;;;;;;;21.10;10.93;;;;;;;6.69;76.80;102594.47;10248098;28;20149;-63
2023/02/05 23:46:42;;;;;;;23.13;11.45;;;;;;;6.73;75.53;102590.66;10251171;28;20053;-61
2023/02/05 23:51:44;;;;;;;21.80;10.82;;;;;;;6.76;75.94;102593.16;10251829;28;20109;-63
2023/02/05 23:56:46;;;;;;;22.15;10.65;;;;;;;6.77;75.89;102589.50;10246315;28;20138;-62
